Time;durP1;ratioP1;P1;durP2;ratioP2;P2;SDS_P1;SDS_P2;PMS_P1;PMS_P2;Temp;Humidity;BMP_temperature;BMP_pressure;BME280_temperature;BME280_humidity;BME280_pressure;Samples;Min_cycle;Max_cycle;Signal;HPM_P1;HPM_P2
2022/03/26 00:00:23;;;;;;;63.33;39.78;;;5.10;99.90;;;;;;5052915;28;20435;-53
2022/03/26 00:02:50;;;;;;;61.78;40.72;;;5.10;99.90;;;;;;5060161;28;20106;-55
2022/03/26 00:05:17;;;;;;;63.75;41.60;;;5.10;99.90;;;;;;5062281;28;20086;-54
2022/03/26 00:07:43;;;;;;;73.53;45.45;;;5.10;99.90;;;;;;5062702;28;20048;-53
2022/03/26 00:10:10;;;;;;;79.70;50.17;;;5.00;99.90;;;;;;5060501;28;20052;-55
2022/03/26 00:12:36;;;;;;;90.82;53.42;;;5.00;99.90;;;;;;5059765;28;20045;-55
2022/03/26 00:15:04;;;;;;;80.10;47.78;;;5.00;99.90;;;;;;5062493;28;20076;-54
2022/03/26 00:17:31;;;;;;;85.13;54.00;;;4.90;99.90;;;;;;5057917;28;20483;-54
2022/03/26 00:19:56;;;;;;;88.35;55.63;;;4.90;99.90;;;;;;5060953;28;20045;-54
2022/03/26 00:22:22;;;;;;;90.63;54.72;;;4.90;99.90;;;;;;5055741;28;20452;-54
2022/03/26 00:24:49;;;;;;;77.50;47.47;;;4.80;99.90;;;;;;5046947;28;20095;-54
2022/03/26 00:27:15;;;;;;;68.93;44.33;;;4.90;99.90;;;;;;5042642;28;20081;-54
2022/03/26 00:29:42;;;;;;;80.82;50.30;;;4.80;99.90;;;;;;5043649;28;20041;-54
2022/03/26 00:32:08;;;;;;;83.10;52.70;;;4.80;99.90;;;;;;5042518;28;20647;-50
2022/03/26 00:34:34;;;;;;;80.55;50.45;;;4.80;99.90;;;;;;5043188;28;20049;-54
2022/03/26 00:37:00;;;;;;;74.25;48.08;;;4.70;99.90;;;;;;5042128;28;20482;-54
2022/03/26 00:39:26;;;;;;;86.50;52.72;;;4.70;99.90;;;;;;5024679;28;20433;-55
2022/03/26 00:41:52;;;;;;;86.25;51.20;;;4.70;99.90;;;;;;5043368;28;20052;-53
2022/03/26 00:44:18;;;;;;;85.40;50.60;;;4.70;99.90;;;;;;5042173;28;20526;-55
2022/03/26 00:46:47;;;;;;;86.30;53.97;;;4.70;99.90;;;;;;5036753;28;20126;-54
2022/03/26 00:49:14;;;;;;;88.97;52.90;;;4.70;99.90;;;;;;5038211;28;20307;-53
2022/03/26 00:51:41;;;;;;;88.32;54.20;;;4.60;99.90;;;;;;5018939;28;20136;-54
2022/03/26 00:54:10;;;;;;;84.35;48.90;;;4.60;99.90;;;;;;5046744;28;20491;-55
2022/03/26 00:56:37;;;;;;;80.00;49.33;;;4.60;99.90;;;;;;5025469;28;20573;-55
2022/03/26 00:59:04;;;;;;;88.97;50.47;;;4.50;99.90;;;;;;5039060;28;20053;-56
2022/03/26 01:01:31;;;;;;;82.82;48.10;;;4.50;99.90;;;;;;5036814;28;20788;-55
2022/03/26 01:03:58;;;;;;;78.97;48.90;;;4.50;99.90;;;;;;5043124;28;20048;-50
2022/03/26 01:06:24;;;;;;;71.20;45.88;;;4.50;99.90;;;;;;5019423;28;20115;-49
2022/03/26 01:08:49;;;;;;;64.95;40.80;;;4.50;99.90;;;;;;5039816;28;20512;-53
2022/03/26 01:11:17;;;;;;;73.45;44.58;;;4.60;99.90;;;;;;5036457;28;20463;-54
2022/03/26 01:13:42;;;;;;;77.68;45.92;;;4.60;99.90;;;;;;5037800;28;20049;-53
2022/03/26 01:16:08;;;;;;;78.60;47.72;;;4.60;99.90;;;;;;5041606;28;20056;-51
2022/03/26 01:18:34;;;;;;;71.45;45.83;;;4.50;99.90;;;;;;5041190;28;20052;-54
2022/03/26 01:21:00;;;;;;;78.35;47.45;;;4.50;99.90;;;;;;5042352;28;20040;-55
2022/03/26 01:23:26;;;;;;;81.45;49.92;;;4.50;99.90;;;;;;5023940;28;20222;-55
2022/03/26 01:25:52;;;;;;;85.25;51.30;;;4.50;99.90;;;;;;5041799;28;20488;-54
2022/03/26 01:28:18;;;;;;;88.10;52.00;;;4.40;99.90;;;;;;5041500;28;20055;-54
2022/03/26 01:30:49;;;;;;;88.13;53.72;;;4.40;99.90;;;;;;5042338;28;20084;-54
2022/03/26 01:33:14;;;;;;;81.53;50.45;;;4.40;99.90;;;;;;5033374;28;20049;-54
2022/03/26 01:35:40;;;;;;;82.82;51.90;;;4.40;99.90;;;;;;5042153;28;20560;-55
2022/03/26 01:38:07;;;;;;;99.05;60.70;;;4.40;99.90;;;;;;5036037;28;20052;-55
2022/03/26 01:40:41;;;;;;;107.72;63.13;;;4.30;99.90;;;;;;5040011;28;20059;-55
2022/03/26 01:43:07;;;;;;;99.13;58.72;;;4.30;99.90;;;;;;5031107;28;20057;-53
2022/03/26 01:45:33;;;;;;;109.50;65.95;;;4.20;99.90;;;;;;5017748;28;20052;-54
2022/03/26 01:47:59;;;;;;;111.28;64.30;;;4.30;99.90;;;;;;5036077;28;20060;-55
2022/03/26 01:50:39;;;;;;;112.40;64.95;;;4.20;99.90;;;;;;5035390;28;20186;-55
2022/03/26 01:53:06;;;;;;;108.80;62.38;;;4.20;99.90;;;;;;5039060;28;20053;-54
2022/03/26 01:55:32;;;;;;;111.93;64.90;;;4.20;99.90;;;;;;5041658;28;20224;-50
2022/03/26 01:57:58;;;;;;;109.80;65.15;;;4.30;99.90;;;;;;5020972;28;20114;-53
2022/03/26 02:00:24;;;;;;;117.43;67.43;;;4.30;99.90;;;;;;5029825;28;20045;-54
2022/03/26 02:02:50;;;;;;;117.85;68.28;;;4.30;99.90;;;;;;5039702;28;20091;-54
2022/03/26 02:05:18;;;;;;;118.88;69.25;;;4.30;99.90;;;;;;5038258;28;20040;-53
2022/03/26 02:07:50;;;;;;;108.75;63.53;;;4.30;99.90;;;;;;5038291;28;20135;-51
2022/03/26 02:10:19;;;;;;;115.10;65.50;;;4.30;99.90;;;;;;5029116;28;20048;-47
2022/03/26 02:12:46;;;;;;;116.32;67.75;;;4.20;99.90;;;;;;5040456;28;20049;-57
2022/03/26 02:15:13;;;;;;;116.03;66.35;;;4.20;99.90;;;;;;5037721;28;20060;-55
2022/03/26 02:17:44;;;;;;;98.38;59.05;;;4.20;99.90;;;;;;5036714;28;20186;-53
2022/03/26 02:20:14;;;;;;;98.07;56.78;;;4.20;99.90;;;;;;5035121;28;20041;-55
2022/03/26 02:22:40;;;;;;;100.03;59.35;;;4.10;99.90;;;;;;5041277;28;20053;-54
2022/03/26 02:25:08;;;;;;;102.22;56.67;;;4.10;99.90;;;;;;5042051;28;20114;-53
2022/03/26 02:27:34;;;;;;;97.13;57.95;;;4.10;99.90;;;;;;5033612;28;20523;-54
2022/03/26 02:30:00;;;;;;;112.43;64.55;;;4.10;99.90;;;;;;5023051;28;20067;-55
2022/03/26 02:32:27;;;;;;;121.72;68.25;;;4.10;99.90;;;;;;5032835;28;20033;-54
2022/03/26 02:34:53;;;;;;;106.18;62.03;;;4.10;99.90;;;;;;5018461;28;20053;-55
2022/03/26 02:37:19;;;;;;;90.57;52.22;;;4.20;99.90;;;;;;5013675;28;20500;-54
2022/03/26 02:39:46;;;;;;;96.78;53.88;;;4.10;99.90;;;;;;5033067;28;20095;-53
2022/03/26 02:42:24;;;;;;;103.00;56.10;;;4.00;99.90;;;;;;5029088;28;20407;-54
2022/03/26 02:44:55;;;;;;;100.78;59.00;;;4.00;99.90;;;;;;5042405;28;20091;-53
2022/03/26 02:47:21;;;;;;;106.03;59.38;;;4.00;99.90;;;;;;5042929;28;20117;-54
2022/03/26 02:49:47;;;;;;;95.57;55.67;;;4.00;99.90;;;;;;5042240;28;20475;-55
2022/03/26 02:52:12;;;;;;;86.28;50.08;;;3.90;99.90;;;;;;5041626;28;20044;-53
2022/03/26 02:54:38;;;;;;;105.07;61.25;;;3.90;99.90;;;;;;5040507;28;20060;-49
2022/03/26 02:57:04;;;;;;;115.97;65.47;;;3.90;99.90;;;;;;5041198;28;20048;-55
2022/03/26 02:59:49;;;;;;;127.53;70.53;;;3.90;99.90;;;;;;5040618;28;20550;-54
2022/03/26 03:02:20;;;;;;;122.05;68.60;;;3.80;99.90;;;;;;5040828;28;20398;-53
2022/03/26 03:04:45;;;;;;;102.68;59.83;;;3.80;99.90;;;;;;5041515;28;20478;-54
2022/03/26 03:07:14;;;;;;;92.88;54.53;;;3.80;99.90;;;;;;5022693;28;20615;-54
2022/03/26 03:09:40;;;;;;;83.47;49.53;;;3.80;99.90;;;;;;5038845;28;20423;-51
2022/03/26 03:12:06;;;;;;;90.75;50.38;;;3.80;99.90;;;;;;5041115;28;20049;-53
2022/03/26 03:14:32;;;;;;;95.40;54.55;;;3.70;99.90;;;;;;5042246;28;20456;-53
2022/03/26 03:16:58;;;;;;;107.70;61.97;;;3.70;99.90;;;;;;5023495;28;20135;-51
2022/03/26 03:19:23;;;;;;;115.05;64.13;;;3.70;99.90;;;;;;5043268;28;20049;-54
2022/03/26 03:21:49;;;;;;;105.90;59.60;;;3.70;99.90;;;;;;5045417;28;20041;-53
2022/03/26 03:24:15;;;;;;;101.35;56.38;;;3.60;99.90;;;;;;5042529;28;20049;-56
2022/03/26 03:26:40;;;;;;;82.80;48.72;;;3.60;99.90;;;;;;5040804;28;20124;-54
2022/03/26 03:29:06;;;;;;;86.10;51.17;;;3.50;99.90;;;;;;5041786;28;20400;-54
2022/03/26 03:31:33;;;;;;;93.50;54.70;;;3.50;99.90;;;;;;5040830;28;20056;-54
2022/03/26 03:33:59;;;;;;;115.90;61.17;;;3.50;99.90;;;;;;5045136;28;20053;-54
2022/03/26 03:36:30;;;;;;;130.20;71.00;;;3.40;99.90;;;;;;5046206;28;20450;-54
2022/03/26 03:38:55;;;;;;;124.88;70.53;;;3.50;99.90;;;;;;5039394;28;20053;-54
2022/03/26 03:41:21;;;;;;;129.88;72.45;;;3.60;99.90;;;;;;5041916;28;20053;-53
2022/03/26 03:43:50;;;;;;;146.07;78.63;;;3.60;99.90;;;;;;5044870;28;20262;-52
2022/03/26 03:46:16;;;;;;;123.55;66.38;;;3.60;99.90;;;;;;5021333;28;20500;-55
2022/03/26 03:48:41;;;;;;;103.50;57.45;;;3.60;99.90;;;;;;5043187;28;20152;-54
2022/03/26 03:51:07;;;;;;;85.70;50.33;;;3.60;99.90;;;;;;5033536;28;20053;-53
2022/03/26 03:53:33;;;;;;;108.85;59.85;;;3.60;99.90;;;;;;5038009;28;20068;-53
2022/03/26 03:56:02;;;;;;;99.57;59.42;;;3.50;99.90;;;;;;5043477;28;20585;-54
2022/03/26 03:58:28;;;;;;;107.72;61.17;;;3.50;99.90;;;;;;5018771;28;20519;-52
2022/03/26 04:00:59;;;;;;;108.07;62.33;;;3.50;99.90;;;;;;5038127;28;20045;-53
2022/03/26 04:03:25;;;;;;;110.65;61.55;;;3.50;99.90;;;;;;5039361;28;20037;-54
2022/03/26 04:05:51;;;;;;;99.85;58.10;;;3.50;99.90;;;;;;5039569;28;20056;-53
2022/03/26 04:08:16;;;;;;;111.82;61.97;;;3.40;99.90;;;;;;5043873;28;20268;-51
2022/03/26 04:10:51;;;;;;;119.65;66.13;;;3.40;99.90;;;;;;5039461;28;20037;-54
2022/03/26 04:13:17;;;;;;;114.53;65.25;;;3.40;99.90;;;;;;5039566;28;20048;-54
2022/03/26 04:15:42;;;;;;;111.90;63.60;;;3.40;99.90;;;;;;5021784;28;20581;-53
2022/03/26 04:18:08;;;;;;;94.78;58.88;;;3.30;99.90;;;;;;5037973;28;20057;-51
2022/03/26 04:20:35;;;;;;;95.45;56.63;;;3.40;99.90;;;;;;5033328;28;20037;-52
2022/03/26 04:23:06;;;;;;;93.80;58.78;;;3.30;99.90;;;;;;5044573;28;20495;-53
2022/03/26 04:25:32;;;;;;;98.45;58.80;;;3.30;99.90;;;;;;5039210;28;20049;-54
2022/03/26 04:28:01;;;;;;;76.82;48.00;;;3.30;99.90;;;;;;5040524;28;20045;-50
2022/03/26 04:30:32;;;;;;;56.72;38.95;;;3.30;99.90;;;;;;5037709;28;20040;-55
2022/03/26 04:32:57;;;;;;;71.00;46.47;;;3.20;99.90;;;;;;5005112;28;20052;-50
2022/03/26 04:35:41;;;;;;;90.15;53.50;;;3.20;99.90;;;;;;5042154;28;20049;-53
2022/03/26 04:38:07;;;;;;;113.82;64.88;;;3.20;99.90;;;;;;5039415;28;20136;-56
2022/03/26 04:40:33;;;;;;;139.02;77.55;;;3.20;99.90;;;;;;5052397;28;20193;-55
2022/03/26 04:42:59;;;;;;;166.07;85.18;;;3.20;99.90;;;;;;5065253;28;20210;-54
2022/03/26 04:45:26;;;;;;;144.23;77.70;;;3.30;99.90;;;;;;5064465;28;20045;-52
2022/03/26 04:47:52;;;;;;;129.43;69.78;;;3.30;99.90;;;;;;5064495;28;20347;-54
2022/03/26 04:50:17;;;;;;;109.55;59.45;;;3.40;99.90;;;;;;5063614;28;21172;-53
2022/03/26 04:52:43;;;;;;;141.52;76.85;;;3.40;99.90;;;;;;5051702;28;20396;-52
2022/03/26 04:55:11;;;;;;;131.63;75.32;;;3.40;99.90;;;;;;5059373;28;20044;-52
2022/03/26 04:57:47;;;;;;;114.95;59.70;;;3.40;99.90;;;;;;5056956;28;20118;-54
2022/03/26 05:00:17;;;;;;;97.10;55.75;;;3.30;99.90;;;;;;5063991;28;20060;-52
2022/03/26 05:02:44;;;;;;;105.65;57.63;;;3.10;99.90;;;;;;5061812;28;20048;-54
2022/03/26 05:05:12;;;;;;;107.40;57.90;;;2.80;99.90;;;;;;5062300;28;20522;-53
2022/03/26 05:07:48;;;;;;;97.15;53.60;;;2.60;99.90;;;;;;5045411;28;20411;-50
2022/03/26 05:10:19;;;;;;;102.43;56.55;;;2.40;99.90;;;;;;5061133;28;20512;-54
2022/03/26 05:12:47;;;;;;;120.53;60.97;;;2.30;99.90;;;;;;5056555;28;20048;-50
2022/03/26 05:15:15;;;;;;;130.50;66.13;;;2.30;99.90;;;;;;5063229;28;20055;-54
2022/03/26 05:17:53;;;;;;;120.70;63.03;;;2.30;99.90;;;;;;5036305;28;20388;-53
2022/03/26 05:20:28;;;;;;;128.23;67.95;;;2.30;99.90;;;;;;5049651;28;20087;-54
2022/03/26 05:22:54;;;;;;;120.05;66.20;;;2.40;99.90;;;;;;5048524;28;20161;-53
2022/03/26 05:25:20;;;;;;;110.18;59.47;;;2.40;99.90;;;;;;5063254;28;20583;-53
2022/03/26 05:27:47;;;;;;;114.72;64.45;;;2.50;99.90;;;;;;5044636;28;20095;-54
2022/03/26 05:30:13;;;;;;;107.80;60.78;;;2.50;99.90;;;;;;5056699;28;20425;-53
2022/03/26 05:32:48;;;;;;;95.18;54.47;;;2.60;99.90;;;;;;5053712;28;20052;-49
2022/03/26 05:35:14;;;;;;;105.72;57.00;;;2.60;99.90;;;;;;5039179;28;20049;-52
2022/03/26 05:37:44;;;;;;;102.78;57.00;;;2.50;99.90;;;;;;5057127;28;20483;-51
2022/03/26 05:40:13;;;;;;;115.90;61.80;;;2.50;99.90;;;;;;5057925;28;20115;-56
2022/03/26 05:42:39;;;;;;;113.43;64.63;;;2.60;99.90;;;;;;5037393;28;20055;-53
2022/03/26 05:45:07;;;;;;;119.53;64.47;;;2.70;99.90;;;;;;5046543;28;20048;-52
2022/03/26 05:47:42;;;;;;;121.40;67.32;;;2.70;99.90;;;;;;5039684;28;20059;-52
2022/03/26 05:50:10;;;;;;;111.65;63.10;;;2.90;99.90;;;;;;5015910;28;20048;-47
2022/03/26 05:52:41;;;;;;;115.30;66.80;;;3.10;99.90;;;;;;5042468;28;20052;-54
2022/03/26 05:55:08;;;;;;;120.18;63.33;;;3.20;99.90;;;;;;5035767;28;20132;-52
2022/03/26 05:57:36;;;;;;;101.13;61.15;;;3.40;99.90;;;;;;5017410;28;20102;-52
2022/03/26 06:00:04;;;;;;;104.95;59.95;;;3.50;99.90;;;;;;5042135;28;20044;-53
2022/03/26 06:02:52;;;;;;;91.57;52.03;;;3.60;99.90;;;;;;5043582;28;20622;-53
2022/03/26 06:05:33;;;;;;;95.45;54.85;;;3.80;99.90;;;;;;5037171;28;20507;-52
2022/03/26 06:07:59;;;;;;;107.47;59.35;;;4.10;99.90;;;;;;5040929;28;20534;-52
2022/03/26 06:10:25;;;;;;;110.25;61.67;;;4.60;99.90;;;;;;5035525;28;20080;-54
2022/03/26 06:13:06;;;;;;;106.55;63.17;;;5.40;99.90;;;;;;5026126;28;20061;-54
2022/03/26 06:15:37;;;;;;;107.75;62.72;;;6.20;99.90;;;;;;5036196;28;20052;-51
2022/03/26 06:18:08;;;;;;;107.32;64.10;;;6.80;99.90;;;;;;5043454;28;20053;-54
2022/03/26 06:20:33;;;;;;;92.72;58.25;;;7.40;99.90;;;;;;5041039;28;20048;-54
2022/03/26 06:22:59;;;;;;;87.88;56.88;;;7.90;99.90;;;;;;5038583;28;20052;-52
2022/03/26 06:25:25;;;;;;;92.45;56.92;;;8.40;99.90;;;;;;5021318;28;20057;-54
2022/03/26 06:27:51;;;;;;;96.00;62.25;;;8.70;99.90;;;;;;5036984;28;20056;-51
2022/03/26 06:30:16;;;;;;;89.57;59.70;;;9.10;99.90;;;;;;5031811;28;20456;-52
2022/03/26 06:32:42;;;;;;;92.15;60.22;;;9.40;99.90;;;;;;5040053;28;20049;-53
2022/03/26 06:35:09;;;;;;;100.85;67.47;;;9.80;99.90;;;;;;5037981;28;20053;-52
2022/03/26 06:37:35;;;;;;;97.40;67.03;;;10.20;99.90;;;;;;5032553;28;20049;-54
2022/03/26 06:40:02;;;;;;;93.03;65.78;;;10.70;99.90;;;;;;5042942;28;20063;-53
2022/03/26 06:42:34;;;;;;;95.60;65.50;;;11.00;99.90;;;;;;5042554;28;20065;-51
2022/03/26 06:45:00;;;;;;;96.38;68.88;;;11.40;99.90;;;;;;5043933;28;20099;-54
2022/03/26 06:47:27;;;;;;;102.20;72.32;;;11.50;99.90;;;;;;5043196;28;20053;-55
2022/03/26 06:49:53;;;;;;;91.25;64.63;;;12.00;99.90;;;;;;5041797;28;20056;-52
2022/03/26 06:52:21;;;;;;;82.82;57.55;;;12.30;99.90;;;;;;5023566;28;20071;-54
2022/03/26 06:54:47;;;;;;;85.93;66.18;;;12.70;99.90;;;;;;5025163;28;20044;-55
2022/03/26 06:57:12;;;;;;;94.32;67.65;;;12.90;99.90;;;;;;5034158;28;20146;-48
2022/03/26 06:59:44;;;;;;;88.60;66.43;;;12.60;99.90;;;;;;5061715;28;20044;-56
2022/03/26 07:02:09;;;;;;;77.10;61.65;;;12.30;99.90;;;;;;5062591;28;20052;-55
2022/03/26 07:04:57;;;;;;;78.63;61.25;;;12.00;99.90;;;;;;5058068;28;20066;-55
2022/03/26 07:07:28;;;;;;;83.15;65.25;;;11.80;99.90;;;;;;5066651;28;20047;-55
2022/03/26 07:09:54;;;;;;;81.20;65.53;;;11.70;99.90;;;;;;5066303;28;20048;-53
2022/03/26 07:12:20;;;;;;;86.70;64.57;;;11.70;99.90;;;;;;5065172;28;20131;-55
2022/03/26 07:14:49;;;;;;;85.25;65.60;;;11.50;99.90;;;;;;5030395;28;20056;-54
2022/03/26 07:17:16;;;;;;;94.53;70.90;;;11.40;99.90;;;;;;5065385;28;20110;-54
2022/03/26 07:19:42;;;;;;;96.90;73.43;;;11.50;99.90;;;;;;5066170;28;20053;-54
2022/03/26 07:22:08;;;;;;;108.97;82.15;;;11.50;99.90;;;;;;5059062;28;20060;-51
2022/03/26 07:24:34;;;;;;;113.57;82.63;;;11.50;99.90;;;;;;5058158;28;20388;-55
2022/03/26 07:27:00;;;;;;;113.55;83.45;;;11.70;99.90;;;;;;5053181;28;20049;-49
2022/03/26 07:29:25;;;;;;;114.07;81.65;;;11.80;99.90;;;;;;5054478;28;20127;-55
2022/03/26 07:31:52;;;;;;;108.65;79.25;;;12.00;99.90;;;;;;5057359;28;20479;-55
2022/03/26 07:34:19;;;;;;;102.03;77.70;;;12.10;99.90;;;;;;5048807;28;20053;-54
2022/03/26 07:36:45;;;;;;;102.50;77.47;;;12.20;99.90;;;;;;5049140;28;20056;-55
2022/03/26 07:39:12;;;;;;;100.07;79.60;;;12.40;99.90;;;;;;5050388;28;20052;-55
2022/03/26 07:41:38;;;;;;;100.70;77.70;;;12.40;99.90;;;;;;5045359;28;20061;-54
2022/03/26 07:44:04;;;;;;;109.00;80.18;;;12.60;99.90;;;;;;5040808;28;20103;-55
2022/03/26 07:46:33;;;;;;;104.45;79.60;;;12.80;99.90;;;;;;5036004;28;20528;-53
2022/03/26 07:48:59;;;;;;;103.40;76.82;;;12.90;99.90;;;;;;5041433;28;20063;-55
2022/03/26 07:51:28;;;;;;;104.53;78.68;;;12.70;99.90;;;;;;5029107;28;20137;-55
2022/03/26 07:53:54;;;;;;;108.10;80.60;;;12.50;99.90;;;;;;5040119;28;20045;-54
2022/03/26 07:56:21;;;;;;;114.50;82.82;;;12.50;99.90;;;;;;5027925;28;20578;-55
2022/03/26 07:58:49;;;;;;;115.88;82.75;;;12.50;99.90;;;;;;5038855;28;20048;-55
2022/03/26 08:01:15;;;;;;;113.50;81.22;;;12.50;99.90;;;;;;5038933;28;20052;-49
2022/03/26 08:03:41;;;;;;;107.70;78.72;;;12.60;99.90;;;;;;5036356;28;20124;-55
2022/03/26 08:06:07;;;;;;;116.72;82.28;;;12.50;99.90;;;;;;5023797;28;20053;-55
2022/03/26 08:08:33;;;;;;;108.38;76.78;;;12.50;99.90;;;;;;5036857;28;20179;-54
2022/03/26 08:11:14;;;;;;;110.45;78.32;;;12.50;99.90;;;;;;5043957;28;20507;-55
2022/03/26 08:13:39;;;;;;;107.20;75.30;;;12.50;99.90;;;;;;5047516;28;20088;-55
2022/03/26 08:16:08;;;;;;;102.88;75.50;;;12.70;99.90;;;;;;5043628;28;20124;-57
2022/03/26 08:18:35;;;;;;;104.47;73.60;;;12.70;99.90;;;;;;5043165;28;20111;-48
2022/03/26 08:21:01;;;;;;;93.13;65.93;;;12.90;99.90;;;;;;5042468;28;20170;-52
2022/03/26 08:23:27;;;;;;;95.57;67.63;;;13.00;99.90;;;;;;5024504;28;20132;-54
2022/03/26 08:28:57;;;;;;;92.63;64.20;;;13.40;99.90;;;;;;4943976;28;20086;-56
2022/03/26 08:31:24;;;;;;;92.95;64.90;;;13.50;99.90;;;;;;4942092;29;20063;-56
2022/03/26 08:33:50;;;;;;;87.35;63.00;;;13.60;99.90;;;;;;4942525;29;20122;-56
2022/03/26 08:36:17;;;;;;;90.88;65.30;;;13.60;99.90;;;;;;4941455;29;20055;-55
2022/03/26 08:38:45;;;;;;;94.47;63.67;;;13.80;99.90;;;;;;4942369;29;20724;-56
2022/03/26 08:41:19;;;;;;;84.75;61.92;;;13.90;99.90;;;;;;4951623;28;20061;-56
2022/03/26 08:43:46;;;;;;;84.88;59.88;;;14.00;99.90;;;;;;4937585;28;20051;-55
2022/03/26 08:46:12;;;;;;;88.82;63.03;;;14.00;99.90;;;;;;4960536;28;20128;-56
2022/03/26 08:48:38;;;;;;;81.45;57.35;;;14.00;99.90;;;;;;4960993;28;20054;-48
2022/03/26 08:51:04;;;;;;;83.15;57.25;;;14.00;99.90;;;;;;4960044;28;20129;-49
2022/03/26 08:53:30;;;;;;;81.00;56.47;;;14.00;99.90;;;;;;4954659;28;20470;-56
2022/03/26 08:55:56;;;;;;;81.38;58.17;;;14.20;99.90;;;;;;4961022;28;20121;-56
2022/03/26 08:58:22;;;;;;;83.70;55.92;;;14.40;99.90;;;;;;4960171;28;20608;-56
2022/03/26 09:00:49;;;;;;;84.15;58.13;;;14.50;99.90;;;;;;4940749;28;20421;-56
2022/03/26 09:03:17;;;;;;;80.30;57.10;;;14.60;99.90;;;;;;5003608;28;20103;-55
2022/03/26 09:05:44;;;;;;;80.60;55.65;;;14.80;99.90;;;;;;5037628;28;20561;-56
2022/03/26 09:08:10;;;;;;;73.32;54.35;;;14.80;99.90;;;;;;5053780;28;20040;-56
2022/03/26 09:10:41;;;;;;;80.35;57.30;;;14.60;99.90;;;;;;5055410;28;20049;-56
2022/03/26 09:13:07;;;;;;;75.32;55.55;;;14.60;99.90;;;;;;5034415;28;20048;-56
2022/03/26 09:15:33;;;;;;;75.82;54.83;;;14.60;99.90;;;;;;5053684;28;20045;-56
2022/03/26 09:17:59;;;;;;;77.32;55.35;;;14.70;99.90;;;;;;5059946;28;20066;-56
2022/03/26 09:20:26;;;;;;;86.22;59.88;;;14.80;99.90;;;;;;5055989;28;20049;-56
2022/03/26 09:22:52;;;;;;;80.20;56.47;;;14.80;99.90;;;;;;5034603;28;20048;-56
2022/03/26 09:25:20;;;;;;;73.25;55.15;;;14.90;99.90;;;;;;5060669;28;20040;-55
2022/03/26 09:27:49;;;;;;;78.45;51.97;;;14.90;99.90;;;;;;5062370;28;20048;-56
2022/03/26 09:30:15;;;;;;;73.55;50.88;;;15.00;99.90;;;;;;5050050;28;20750;-53
2022/03/26 09:32:44;;;;;;;73.57;50.72;;;15.10;99.90;;;;;;5034806;28;20499;-58
2022/03/26 09:35:12;;;;;;;72.07;49.35;;;15.20;99.90;;;;;;5055201;28;20044;-51
2022/03/26 09:37:38;;;;;;;72.22;51.63;;;15.20;99.90;;;;;;5056699;28;20059;-54
2022/03/26 09:40:04;;;;;;;68.45;49.85;;;15.40;99.90;;;;;;5050460;28;20049;-56
2022/03/26 09:42:32;;;;;;;60.20;44.95;;;15.40;99.90;;;;;;5038494;28;20114;-57
2022/03/26 09:44:58;;;;;;;61.30;46.17;;;15.20;99.90;;;;;;5040457;28;20128;-52
2022/03/26 09:47:24;;;;;;;67.75;48.53;;;15.30;99.90;;;;;;5038299;28;20094;-56
2022/03/26 09:49:50;;;;;;;73.20;49.85;;;15.30;99.90;;;;;;5032278;28;20080;-55
2022/03/26 09:52:16;;;;;;;65.10;49.97;;;15.30;99.90;;;;;;5035536;28;20048;-55
2022/03/26 09:54:42;;;;;;;64.88;49.53;;;15.40;99.90;;;;;;5037650;28;20114;-55
2022/03/26 09:57:08;;;;;;;65.00;49.60;;;15.50;99.90;;;;;;5035522;28;20074;-51
2022/03/26 09:59:35;;;;;;;66.40;47.72;;;15.50;99.90;;;;;;5033276;28;20106;-48
2022/03/26 10:02:02;;;;;;;60.35;42.78;;;15.50;99.90;;;;;;5040207;28;20446;-57
2022/03/26 10:04:40;;;;;;;63.88;44.13;;;15.50;99.90;;;;;;5022739;28;20049;-56
2022/03/26 10:07:07;;;;;;;57.63;43.60;;;15.30;99.90;;;;;;5038220;28;20566;-56
2022/03/26 10:09:37;;;;;;;54.60;40.25;;;15.20;99.90;;;;;;5039477;28;20053;-56
2022/03/26 10:12:03;;;;;;;43.72;33.03;;;15.40;99.90;;;;;;5031095;28;20064;-56
2022/03/26 10:14:40;;;;;;;45.10;38.13;;;15.40;99.90;;;;;;5030709;28;20250;-56
2022/03/26 10:17:26;;;;;;;47.38;38.72;;;15.40;99.90;;;;;;5034116;28;20132;-57
2022/03/26 10:19:57;;;;;;;47.35;37.22;;;15.20;99.90;;;;;;5034009;28;20092;-57
2022/03/26 10:22:34;;;;;;;53.13;37.10;;;15.20;99.90;;;;;;5035088;28;20486;-56
2022/03/26 10:25:10;;;;;;;50.20;39.97;;;15.40;99.90;;;;;;5026539;28;20049;-52
2022/03/26 10:27:42;;;;;;;42.90;34.47;;;15.30;99.90;;;;;;5035215;28;20531;-56
2022/03/26 10:30:12;;;;;;;40.60;34.42;;;15.40;99.90;;;;;;5031206;28;20123;-53
2022/03/26 10:32:49;;;;;;;44.15;33.35;;;15.60;99.90;;;;;;5015589;28;20053;-53
2022/03/26 10:35:23;;;;;;;40.55;32.85;;;15.70;99.90;;;;;;5014395;28;20105;-49
2022/03/26 10:37:58;;;;;;;41.20;30.75;;;15.80;99.90;;;;;;5029712;28;20052;-56
2022/03/26 10:40:29;;;;;;;37.97;31.15;;;15.90;99.90;;;;;;5039556;28;20511;-49
2022/03/26 10:43:12;;;;;;;45.88;33.50;;;16.10;99.90;;;;;;5059940;28;20053;-45
2022/03/26 10:45:55;;;;;;;34.15;29.02;;;16.00;99.90;;;;;;5050842;28;20094;-54
2022/03/26 10:48:26;;;;;;;35.67;28.90;;;16.10;99.90;;;;;;5062029;28;20046;-57
2022/03/26 10:51:05;;;;;;;36.00;29.55;;;16.20;99.90;;;;;;5057917;28;20825;-57
2022/03/26 10:53:56;;;;;;;36.83;30.08;;;16.50;99.90;;;;;;5050809;28;20144;-59
2022/03/26 10:56:24;;;;;;;35.38;30.58;;;16.40;99.90;;;;;;5048318;28;20051;-55
2022/03/26 10:58:50;;;;;;;34.40;28.08;;;16.40;99.90;;;;;;5034033;28;20119;-56
2022/03/26 11:01:16;;;;;;;30.63;26.58;;;16.30;99.90;;;;;;5029900;28;20512;-56
2022/03/26 11:03:42;;;;;;;33.42;29.83;;;16.50;99.90;;;;;;5034601;28;20056;-57
2022/03/26 11:06:09;;;;;;;33.83;28.60;;;16.50;99.90;;;;;;5031585;28;20044;-53
2022/03/26 11:08:36;;;;;;;32.67;26.23;;;16.40;99.90;;;;;;5048828;28;20469;-56
2022/03/26 11:11:07;;;;;;;30.33;25.50;;;16.50;99.90;;;;;;5053132;28;20492;-54
2022/03/26 11:13:46;;;;;;;36.63;26.50;;;16.40;99.90;;;;;;5055415;28;20635;-59
2022/03/26 11:16:29;;;;;;;30.98;25.85;;;16.40;99.90;;;;;;5057080;28;20090;-57
2022/03/26 11:19:09;;;;;;;31.27;24.90;;;16.40;99.90;;;;;;5043982;28;20053;-53
2022/03/26 11:22:00;;;;;;;30.38;20.42;;;16.40;99.90;;;;;;5053594;28;20135;-55
2022/03/26 11:24:55;;;;;;;23.70;17.17;;;16.20;99.90;;;;;;5057677;28;20051;-57
2022/03/26 11:27:51;;;;;;;20.77;16.48;;;16.20;99.90;;;;;;4959618;28;20627;-56
2022/03/26 11:30:28;;;;;;;19.30;16.08;;;16.40;99.90;;;;;;4970195;28;21062;-56
2022/03/26 11:32:55;;;;;;;16.55;13.02;;;16.30;99.90;;;;;;4972659;28;20612;-57
2022/03/26 11:35:21;;;;;;;17.92;13.88;;;16.40;99.90;;;;;;4976469;28;20046;-56
2022/03/26 11:37:58;;;;;;;19.75;15.63;;;16.50;99.90;;;;;;4978132;28;20630;-57
2022/03/26 11:40:45;;;;;;;17.90;14.68;;;16.50;99.90;;;;;;4983558;28;20054;-56
2022/03/26 11:43:15;;;;;;;17.58;13.07;;;16.50;99.90;;;;;;4975082;28;20093;-56
2022/03/26 11:51:28;;;;;;;15.60;11.32;;;16.60;99.90;;;;;;4975808;28;20054;-56
2022/03/26 11:54:04;;;;;;;21.15;13.10;;;16.60;99.90;;;;;;4982284;28;20499;-57
2022/03/26 11:56:31;;;;;;;19.27;12.90;;;16.50;99.90;;;;;;4963711;28;20049;-57
2022/03/26 11:59:06;;;;;;;14.43;12.60;;;16.50;99.90;;;;;;4978999;28;20068;-54
2022/03/26 12:01:42;;;;;;;15.13;11.70;;;16.50;99.90;;;;;;4981360;28;20440;-56
2022/03/26 12:04:28;;;;;;;14.60;10.90;;;16.60;99.90;;;;;;5003028;28;20060;-52
2022/03/26 12:06:57;;;;;;;13.88;11.13;;;16.50;99.90;;;;;;5036809;28;20054;-54
2022/03/26 12:09:34;;;;;;;13.45;11.18;;;16.50;99.90;;;;;;5018180;28;20076;-57
2022/03/26 12:12:08;;;;;;;13.75;11.82;;;16.50;99.90;;;;;;5038271;28;20044;-56
2022/03/26 12:14:35;;;;;;;17.13;12.23;;;16.50;99.90;;;;;;5039560;28;20120;-56
2022/03/26 12:17:05;;;;;;;15.75;12.07;;;16.50;99.90;;;;;;5035262;28;20057;-56
2022/03/26 12:19:41;;;;;;;14.00;10.82;;;16.50;99.90;;;;;;5036892;28;20443;-56
2022/03/26 12:22:28;;;;;;;14.85;11.15;;;16.30;99.90;;;;;;5033334;28;20045;-57
2022/03/26 12:25:00;;;;;;;13.05;9.70;;;16.30;99.90;;;;;;5014483;28;20519;-56
2022/03/26 12:27:27;;;;;;;11.00;9.25;;;16.40;99.90;;;;;;5035318;28;20033;-57
2022/03/26 12:29:54;;;;;;;14.50;10.32;;;16.20;99.90;;;;;;5040381;28;20768;-57
2022/03/26 12:32:19;;;;;;;12.35;9.07;;;16.20;99.90;;;;;;5040855;28;20052;-57
2022/03/26 12:34:54;;;;;;;11.27;10.10;;;16.40;99.90;;;;;;5041397;28;20064;-56
2022/03/26 12:37:23;;;;;;;14.63;9.93;;;16.30;99.90;;;;;;5041877;28;20408;-56
2022/03/26 12:39:50;;;;;;;14.88;9.40;;;16.40;99.90;;;;;;5026481;28;20092;-56
2022/03/26 12:42:16;;;;;;;11.98;9.40;;;16.40;99.90;;;;;;5046225;28;20131;-56
2022/03/26 12:44:42;;;;;;;12.85;9.93;;;16.20;99.90;;;;;;5050417;28;20525;-56